Time;durP1;ratioP1;P1;durP2;ratioP2;P2;SDS_P1;SDS_P2;PMS_P1;PMS_P2;Temp;Humidity;BMP_temperature;BMP_pressure;BME280_temperature;BME280_humidity;BME280_pressure;Samples;Min_cycle;Max_cycle;Signal;HPM_P1;HPM_P2
2022/01/27 00:05:19;;;;;;;5.50;4.00;;;;;;;;;;5025922;28;20152;-50
2022/01/27 00:07:52;;;;;;;5.72;3.90;;;;;;;;;;5027174;28;20036;-52
2022/01/27 00:10:31;;;;;;;5.90;4.45;;;;;;;;;;5045608;28;20020;-51
2022/01/27 00:12:56;;;;;;;6.07;4.05;;;;;;;;;;5034068;28;20061;-52
2022/01/27 00:15:29;;;;;;;5.47;3.87;;;;;;;;;;5025942;28;20057;-52
2022/01/27 00:17:59;;;;;;;5.35;4.00;;;;;;;;;;5025434;28;20283;-51
2022/01/27 00:20:24;;;;;;;5.45;3.80;;;;;;;;;;5025257;28;20037;-54
2022/01/27 00:22:49;;;;;;;6.07;3.95;;;;;;;;;;5024431;28;20048;-51
2022/01/27 00:25:15;;;;;;;6.50;4.10;;;;;;;;;;5025479;28;20104;-50
2022/01/27 00:27:40;;;;;;;5.78;4.05;;;;;;;;;;5025868;28;20312;-51
2022/01/27 00:30:06;;;;;;;5.50;3.70;;;;;;;;;;5025564;28;20108;-51
2022/01/27 00:32:31;;;;;;;5.72;3.83;;;;;;;;;;5025191;28;20879;-50
2022/01/27 00:34:57;;;;;;;5.28;3.92;;;;;;;;;;5015793;28;20029;-53
2022/01/27 00:37:22;;;;;;;5.45;3.80;;;;;;;;;;5024964;28;20037;-52
2022/01/27 00:39:47;;;;;;;6.13;4.13;;;;;;;;;;5026142;28;20083;-51
2022/01/27 00:42:12;;;;;;;5.43;3.33;;;;;;;;;;5025848;28;20326;-51
2022/01/27 00:44:38;;;;;;;5.80;3.40;;;;;;;;;;5024971;28;20276;-51
2022/01/27 00:47:03;;;;;;;4.73;3.57;;;;;;;;;;5024170;28;20025;-51
2022/01/27 00:49:28;;;;;;;5.72;3.63;;;;;;;;;;5024242;28;20280;-51
2022/01/27 00:51:54;;;;;;;6.77;3.77;;;;;;;;;;5024202;28;20443;-54
2022/01/27 00:54:23;;;;;;;5.38;3.63;;;;;;;;;;5024756;28;20299;-51
2022/01/27 00:56:58;;;;;;;5.53;3.90;;;;;;;;;;5025026;28;20040;-52
2022/01/27 01:02:13;;;;;;;5.35;3.80;;;;;;;;;;5024864;28;20025;-50
2022/01/27 01:04:42;;;;;;;6.00;3.90;;;;;;;;;;5024668;28;20462;-52
2022/01/27 01:07:09;;;;;;;5.03;3.20;;;;;;;;;;5024177;28;20573;-51
2022/01/27 01:21:59;;;;;;;5.32;3.78;;;;;;;;;;5011391;28;20038;-51
2022/01/27 01:32:13;;;;;;;5.93;3.80;;;;;;;;;;5024086;28;20108;-50
2022/01/27 01:34:44;;;;;;;5.43;3.65;;;;;;;;;;5024238;28;20101;-51
2022/01/27 01:37:09;;;;;;;5.45;3.60;;;;;;;;;;5024806;28;20025;-52
2022/01/27 01:39:35;;;;;;;5.43;3.63;;;;;;;;;;5025663;28;20095;-50
2022/01/27 01:42:01;;;;;;;4.57;3.35;;;;;;;;;;5025847;28;20264;-51
2022/01/27 01:44:26;;;;;;;6.03;3.65;;;;;;;;;;5024039;28;20029;-51
2022/01/27 01:46:52;;;;;;;5.33;3.53;;;;;;;;;;5025033;28;20033;-50
2022/01/27 01:49:17;;;;;;;5.30;3.30;;;;;;;;;;5024843;28;20164;-51
2022/01/27 01:51:43;;;;;;;4.57;3.28;;;;;;;;;;5024225;28;20101;-52
2022/01/27 01:54:08;;;;;;;4.18;3.50;;;;;;;;;;5024876;28;20021;-51
2022/01/27 01:56:34;;;;;;;4.55;3.25;;;;;;;;;;5023601;28;20064;-50
2022/01/27 01:58:59;;;;;;;4.75;3.10;;;;;;;;;;5022653;28;20032;-52
2022/01/27 02:01:24;;;;;;;4.68;3.10;;;;;;;;;;5023638;28;20033;-49
2022/01/27 02:03:50;;;;;;;4.80;2.97;;;;;;;;;;5023123;28;20041;-50
2022/01/27 02:07:02;;;;;;;4.40;3.03;;;;;;;;;;5021799;28;20435;-51
2022/01/27 02:19:59;;;;;;;5.22;3.28;;;;;;;;;;5024197;28;20703;-50
2022/01/27 02:22:24;;;;;;;4.53;3.20;;;;;;;;;;5023117;28;20029;-50
2022/01/27 02:24:50;;;;;;;4.70;3.13;;;;;;;;;;5024090;28;20839;-50
2022/01/27 02:27:16;;;;;;;4.65;3.00;;;;;;;;;;5023954;28;20119;-52
2022/01/27 02:29:41;;;;;;;4.25;2.90;;;;;;;;;;5022302;28;20056;-50
2022/01/27 02:32:06;;;;;;;4.78;3.03;;;;;;;;;;5023192;28;20100;-52
2022/01/27 02:34:32;;;;;;;4.20;3.05;;;;;;;;;;5023465;28;20106;-51
2022/01/27 02:36:57;;;;;;;4.35;2.90;;;;;;;;;;5023722;28;20164;-52
2022/01/27 02:39:22;;;;;;;4.83;2.83;;;;;;;;;;5023692;28;20435;-52
2022/01/27 02:42:06;;;;;;;4.57;3.03;;;;;;;;;;5023566;28;20650;-51
2022/01/27 02:44:31;;;;;;;4.20;2.97;;;;;;;;;;5023510;28;20124;-50
2022/01/27 02:46:56;;;;;;;4.10;2.70;;;;;;;;;;5023794;28;20593;-50
2022/01/27 02:49:22;;;;;;;4.53;3.00;;;;;;;;;;5023306;28;20090;-50
2022/01/27 02:51:47;;;;;;;4.30;3.00;;;;;;;;;;5022378;28;20038;-50
2022/01/27 02:54:12;;;;;;;4.70;2.77;;;;;;;;;;5022956;28;20033;-50
2022/01/27 02:56:43;;;;;;;3.90;3.00;;;;;;;;;;5023164;28;20088;-52
2022/01/27 02:59:09;;;;;;;4.43;2.60;;;;;;;;;;5022864;28;20366;-54
2022/01/27 03:01:34;;;;;;;4.13;2.70;;;;;;;;;;5022569;28;20239;-53
2022/01/27 03:03:59;;;;;;;3.90;2.50;;;;;;;;;;5022489;28;20044;-51
2022/01/27 03:06:26;;;;;;;3.85;2.70;;;;;;;;;;5021195;28;20308;-52
2022/01/27 03:08:51;;;;;;;4.18;2.53;;;;;;;;;;5027048;28;20033;-52
2022/01/27 03:11:17;;;;;;;3.93;2.67;;;;;;;;;;5034025;28;20668;-51
2022/01/27 03:13:42;;;;;;;3.60;2.38;;;;;;;;;;5029196;28;20340;-51
2022/01/27 03:16:08;;;;;;;4.80;2.67;;;;;;;;;;5027978;28;20025;-51
2022/01/27 03:18:34;;;;;;;4.13;2.55;;;;;;;;;;5027620;28;20152;-51
2022/01/27 03:20:59;;;;;;;4.13;2.60;;;;;;;;;;5030936;28;20032;-52
2022/01/27 03:23:24;;;;;;;3.88;2.67;;;;;;;;;;5029325;28;20095;-51
2022/01/27 03:25:49;;;;;;;3.83;2.27;;;;;;;;;;5026973;28;20030;-52
2022/01/27 03:28:17;;;;;;;4.00;2.60;;;;;;;;;;5026187;28;20025;-52
2022/01/27 03:30:42;;;;;;;3.85;2.45;;;;;;;;;;5025572;28;20039;-52
2022/01/27 03:33:08;;;;;;;4.60;2.30;;;;;;;;;;5025318;28;20041;-51
2022/01/27 03:35:33;;;;;;;3.80;2.45;;;;;;;;;;5025875;28;20055;-51
2022/01/27 03:37:58;;;;;;;4.17;2.60;;;;;;;;;;5026245;28;20086;-51
2022/01/27 03:40:23;;;;;;;3.60;2.40;;;;;;;;;;5026683;28;20033;-51
2022/01/27 03:43:02;;;;;;;3.50;2.60;;;;;;;;;;5026314;28;20025;-51
2022/01/27 03:45:27;;;;;;;3.30;2.50;;;;;;;;;;5026299;28;20272;-51
2022/01/27 03:47:52;;;;;;;3.55;2.35;;;;;;;;;;5026430;28;20074;-51
2022/01/27 03:50:18;;;;;;;3.30;2.33;;;;;;;;;;5026411;28;20029;-50
2022/01/27 03:52:43;;;;;;;4.37;2.70;;;;;;;;;;5025636;28;20334;-51
2022/01/27 03:55:08;;;;;;;3.50;2.40;;;;;;;;;;5026270;28;20264;-51
2022/01/27 03:57:33;;;;;;;3.45;2.17;;;;;;;;;;5025703;28;20094;-50
2022/01/27 03:59:59;;;;;;;3.70;2.28;;;;;;;;;;5024611;28;20021;-50
2022/01/27 04:02:24;;;;;;;3.77;2.20;;;;;;;;;;5025336;28;20096;-51
2022/01/27 04:04:49;;;;;;;3.87;2.53;;;;;;;;;;5025857;28;20079;-51
2022/01/27 04:07:14;;;;;;;3.17;2.03;;;;;;;;;;5026100;28;20272;-52
2022/01/27 04:09:40;;;;;;;3.53;2.38;;;;;;;;;;5025883;28;20290;-50
2022/01/27 04:12:05;;;;;;;3.37;2.10;;;;;;;;;;5025680;28;20032;-51
2022/01/27 04:14:30;;;;;;;3.55;2.15;;;;;;;;;;5025333;28;20030;-51
2022/01/27 04:16:55;;;;;;;2.97;1.80;;;;;;;;;;5025941;28;20101;-50
2022/01/27 04:19:21;;;;;;;3.60;2.25;;;;;;;;;;5024181;28;20067;-51
2022/01/27 04:21:46;;;;;;;2.92;1.83;;;;;;;;;;5024324;28;20423;-51
2022/01/27 04:24:15;;;;;;;2.75;1.80;;;;;;;;;;5025465;28;20033;-52
2022/01/27 04:26:45;;;;;;;3.00;2.13;;;;;;;;;;5025915;28;20017;-51
2022/01/27 04:29:10;;;;;;;3.20;1.90;;;;;;;;;;5025385;28;20021;-51
2022/01/27 04:31:38;;;;;;;3.08;2.00;;;;;;;;;;5025737;28;20025;-51
2022/01/27 04:34:04;;;;;;;2.90;1.75;;;;;;;;;;5024895;28;20017;-52
2022/01/27 04:36:31;;;;;;;3.03;2.05;;;;;;;;;;5024903;28;20764;-51
2022/01/27 04:39:09;;;;;;;3.05;2.00;;;;;;;;;;5025668;28;20030;-51
2022/01/27 04:44:20;;;;;;;3.25;2.38;;;;;;;;;;5023209;28;20103;-50
2022/01/27 04:47:02;;;;;;;3.20;1.85;;;;;;;;;;5024574;28;20021;-51
2022/01/27 04:49:27;;;;;;;3.67;2.08;;;;;;;;;;5025310;28;20076;-49
2022/01/27 04:51:53;;;;;;;3.28;2.00;;;;;;;;;;5023764;28;20111;-49
2022/01/27 04:54:27;;;;;;;3.30;2.17;;;;;;;;;;5024904;28;20037;-50
2022/01/27 04:56:53;;;;;;;2.85;1.98;;;;;;;;;;5029040;28;20032;-52
2022/01/27 04:59:24;;;;;;;3.08;1.90;;;;;;;;;;5029551;28;20617;-50
2022/01/27 05:01:58;;;;;;;3.28;2.08;;;;;;;;;;5026564;28;20037;-50
2022/01/27 05:04:29;;;;;;;2.92;1.70;;;;;;;;;;5025419;28;20065;-50
2022/01/27 05:06:54;;;;;;;2.85;1.70;;;;;;;;;;5024413;28;20052;-50
2022/01/27 05:09:20;;;;;;;2.80;1.77;;;;;;;;;;5023203;28;20041;-52
2022/01/27 05:11:52;;;;;;;2.85;1.83;;;;;;;;;;5023804;28;20484;-51
2022/01/27 05:14:23;;;;;;;2.58;1.70;;;;;;;;;;5024041;28;20028;-52
2022/01/27 05:16:49;;;;;;;2.95;1.77;;;;;;;;;;5024824;28;20029;-52
2022/01/27 05:19:14;;;;;;;2.88;1.88;;;;;;;;;;5024942;28;20193;-50
2022/01/27 05:21:39;;;;;;;2.78;1.70;;;;;;;;;;5024045;28;20188;-51
2022/01/27 05:24:05;;;;;;;2.75;1.70;;;;;;;;;;5024946;28;20494;-50
2022/01/27 05:26:30;;;;;;;2.22;1.67;;;;;;;;;;5027610;28;20024;-50
2022/01/27 05:28:55;;;;;;;2.20;1.70;;;;;;;;;;5025357;28;20515;-49
2022/01/27 05:31:21;;;;;;;2.47;1.55;;;;;;;;;;5023297;28;20025;-51
2022/01/27 05:33:46;;;;;;;2.67;1.50;;;;;;;;;;5022680;28;20037;-52
2022/01/27 05:36:17;;;;;;;2.30;1.53;;;;;;;;;;5023148;28;20279;-50
2022/01/27 05:38:42;;;;;;;2.75;1.70;;;;;;;;;;5019419;28;20745;-50
2022/01/27 05:41:07;;;;;;;2.50;1.60;;;;;;;;;;5023362;28;20025;-50
2022/01/27 05:43:33;;;;;;;2.40;1.57;;;;;;;;;;5022217;28;20037;-51
2022/01/27 05:45:58;;;;;;;2.30;1.52;;;;;;;;;;5022377;28;20279;-51
2022/01/27 05:48:23;;;;;;;2.53;1.67;;;;;;;;;;5023046;28;20112;-52
2022/01/27 05:50:48;;;;;;;1.90;1.20;;;;;;;;;;5023011;28;20320;-51
2022/01/27 05:53:14;;;;;;;2.37;1.40;;;;;;;;;;5023114;28;20280;-52
2022/01/27 05:55:39;;;;;;;2.23;1.47;;;;;;;;;;5022880;28;20256;-51
2022/01/27 05:58:04;;;;;;;1.95;1.30;;;;;;;;;;5022777;28;20718;-51
2022/01/27 06:00:29;;;;;;;2.27;1.50;;;;;;;;;;5022722;28;20021;-53
2022/01/27 06:02:55;;;;;;;2.80;1.63;;;;;;;;;;5022838;28;20306;-51
2022/01/27 06:05:20;;;;;;;2.42;1.70;;;;;;;;;;5022507;28;20304;-51
2022/01/27 06:07:45;;;;;;;2.37;1.40;;;;;;;;;;5022272;28;20117;-51
2022/01/27 06:10:10;;;;;;;2.13;1.50;;;;;;;;;;5023719;28;20268;-51
2022/01/27 06:12:49;;;;;;;2.27;1.30;;;;;;;;;;5023347;28;20632;-51
2022/01/27 06:15:14;;;;;;;2.22;1.13;;;;;;;;;;5023707;28;20276;-51
2022/01/27 06:17:39;;;;;;;2.20;1.40;;;;;;;;;;5024737;28;20781;-51
2022/01/27 06:20:05;;;;;;;2.20;1.60;;;;;;;;;;5023535;28;21108;-51
2022/01/27 06:22:30;;;;;;;2.33;1.60;;;;;;;;;;5023139;28;20430;-51
2022/01/27 06:24:55;;;;;;;1.97;1.30;;;;;;;;;;5023823;28;20029;-49
2022/01/27 06:27:20;;;;;;;2.03;1.30;;;;;;;;;;5023796;28;20072;-52
2022/01/27 06:29:46;;;;;;;2.72;1.30;;;;;;;;;;5023490;28;20025;-50
2022/01/27 06:32:11;;;;;;;1.73;1.30;;;;;;;;;;5023151;28;20109;-52
2022/01/27 06:34:36;;;;;;;2.63;1.80;;;;;;;;;;5022556;28;20491;-51
2022/01/27 06:37:02;;;;;;;1.83;1.35;;;;;;;;;;5023081;28;20106;-48
2022/01/27 06:39:27;;;;;;;2.33;1.48;;;;;;;;;;5023731;28;20622;-50
2022/01/27 06:41:52;;;;;;;1.93;1.13;;;;;;;;;;5008321;28;20135;-51
2022/01/27 06:44:17;;;;;;;1.80;1.20;;;;;;;;;;5026974;28;20037;-50
2022/01/27 06:46:43;;;;;;;1.70;1.20;;;;;;;;;;5026882;28;20284;-50
2022/01/27 06:49:09;;;;;;;1.80;1.10;;;;;;;;;;5027370;28;20029;-50
2022/01/27 06:51:34;;;;;;;2.05;1.40;;;;;;;;;;5024492;28;20260;-51
2022/01/27 06:53:59;;;;;;;2.03;1.40;;;;;;;;;;5008714;28;20029;-50
2022/01/27 06:56:25;;;;;;;1.70;1.30;;;;;;;;;;5011641;28;20264;-51
2022/01/27 06:58:50;;;;;;;1.88;1.10;;;;;;;;;;5025284;28;20037;-49
2022/01/27 07:01:16;;;;;;;2.00;1.30;;;;;;;;;;5025911;28;20024;-50
2022/01/27 07:03:41;;;;;;;1.70;1.23;;;;;;;;;;5025413;28;20864;-50
2022/01/27 07:06:06;;;;;;;2.75;1.30;;;;;;;;;;5027721;28;20122;-51
2022/01/27 07:08:32;;;;;;;2.37;1.40;;;;;;;;;;5037156;28;20438;-51
2022/01/27 07:10:57;;;;;;;2.43;1.40;;;;;;;;;;5025006;28;20261;-51
2022/01/27 07:13:22;;;;;;;2.37;1.50;;;;;;;;;;5026283;28;20280;-51
2022/01/27 07:15:47;;;;;;;1.87;1.27;;;;;;;;;;5043419;28;20032;-52
2022/01/27 07:18:13;;;;;;;2.15;1.38;;;;;;;;;;5039411;28;20267;-51
2022/01/27 07:20:38;;;;;;;1.70;1.23;;;;;;;;;;5025369;28;20025;-52
2022/01/27 07:23:06;;;;;;;2.30;1.48;;;;;;;;;;5026541;28;20697;-52
2022/01/27 07:25:31;;;;;;;2.42;1.40;;;;;;;;;;5025267;28;20029;-52
2022/01/27 07:27:56;;;;;;;1.90;1.40;;;;;;;;;;5006505;28;20422;-52
2022/01/27 07:30:21;;;;;;;1.88;1.40;;;;;;;;;;5016079;28;20274;-51
2022/01/27 07:32:47;;;;;;;2.10;1.33;;;;;;;;;;5036789;28;20521;-51
2022/01/27 07:35:12;;;;;;;2.58;1.33;;;;;;;;;;5036695;28;20032;-51
2022/01/27 07:37:40;;;;;;;3.20;1.30;;;;;;;;;;5023541;28;20045;-53
2022/01/27 07:40:05;;;;;;;2.35;1.30;;;;;;;;;;5041795;28;20075;-52
2022/01/27 07:42:31;;;;;;;2.63;1.30;;;;;;;;;;5017597;28;20049;-51
2022/01/27 07:44:56;;;;;;;2.27;1.70;;;;;;;;;;5023421;28;20103;-51
2022/01/27 07:47:21;;;;;;;1.80;1.33;;;;;;;;;;4994061;28;20283;-51
2022/01/27 07:49:46;;;;;;;3.27;1.40;;;;;;;;;;5017531;28;20398;-52
2022/01/27 07:52:12;;;;;;;2.17;1.33;;;;;;;;;;5005485;28;20271;-52
2022/01/27 07:54:37;;;;;;;2.33;1.50;;;;;;;;;;5011841;28;20040;-55
2022/01/27 07:57:03;;;;;;;1.97;1.47;;;;;;;;;;5025142;28;20034;-53
2022/01/27 07:59:28;;;;;;;2.40;1.67;;;;;;;;;;5025426;28;20032;-54
2022/01/27 08:01:53;;;;;;;2.37;1.30;;;;;;;;;;5023702;28;20116;-55
2022/01/27 08:04:18;;;;;;;2.30;1.58;;;;;;;;;;5004772;28;20037;-53
2022/01/27 08:06:44;;;;;;;2.07;1.50;;;;;;;;;;5021056;28;20037;-54
2022/01/27 08:09:09;;;;;;;4.47;1.83;;;;;;;;;;5024842;28;20781;-54
2022/01/27 08:11:34;;;;;;;2.93;1.70;;;;;;;;;;5006989;28;20482;-53
2022/01/27 08:13:59;;;;;;;3.13;1.88;;;;;;;;;;5026242;28;20284;-53
2022/01/27 08:16:25;;;;;;;2.73;1.80;;;;;;;;;;5044691;28;20036;-52
2022/01/27 08:18:50;;;;;;;2.95;1.90;;;;;;;;;;5045012;28;20032;-55
2022/01/27 08:21:15;;;;;;;2.53;1.67;;;;;;;;;;5043986;28;20025;-53
2022/01/27 08:23:43;;;;;;;2.70;1.70;;;;;;;;;;5032284;28;20037;-54
2022/01/27 08:26:11;;;;;;;2.55;1.70;;;;;;;;;;5030155;28;20036;-55
2022/01/27 08:31:07;;;;;;;2.85;1.45;;;;;;;;;;5025737;28;20094;-55
2022/01/27 08:33:33;;;;;;;2.33;1.52;;;;;;;;;;5023813;28;20029;-56
2022/01/27 08:35:59;;;;;;;2.03;1.42;;;;;;;;;;5026480;28;20029;-54
2022/01/27 08:38:27;;;;;;;2.42;1.40;;;;;;;;;;5025443;28;20048;-51
2022/01/27 08:40:52;;;;;;;1.80;1.25;;;;;;;;;;5033915;28;20028;-55
2022/01/27 08:43:17;;;;;;;1.95;1.50;;;;;;;;;;5041228;28;20156;-54
2022/01/27 08:45:44;;;;;;;2.33;1.60;;;;;;;;;;5025232;28;20574;-53
2022/01/27 08:48:12;;;;;;;2.15;1.50;;;;;;;;;;5027303;28;20753;-53
2022/01/27 08:50:38;;;;;;;3.45;1.70;;;;;;;;;;5025397;28;20502;-55
2022/01/27 08:53:03;;;;;;;1.95;1.40;;;;;;;;;;5023178;28;20029;-52
2022/01/27 08:55:28;;;;;;;1.80;1.40;;;;;;;;;;5025650;28;20025;-53
2022/01/27 08:57:54;;;;;;;2.53;1.90;;;;;;;;;;5008383;28;20276;-53
2022/01/27 09:00:20;;;;;;;2.10;1.52;;;;;;;;;;5025881;28;20108;-53
2022/01/27 09:02:46;;;;;;;1.95;1.38;;;;;;;;;;5027012;28;20099;-55
2022/01/27 09:05:11;;;;;;;2.70;1.60;;;;;;;;;;5029641;28;20080;-54
2022/01/27 09:07:36;;;;;;;3.40;1.67;;;;;;;;;;5027097;28;21373;-55
2022/01/27 09:10:02;;;;;;;3.55;1.70;;;;;;;;;;5029292;28;20351;-54
2022/01/27 09:12:27;;;;;;;2.35;1.60;;;;;;;;;;5024992;28;20060;-53
2022/01/27 09:14:53;;;;;;;2.40;1.70;;;;;;;;;;5031429;28;20036;-51
2022/01/27 09:17:18;;;;;;;2.27;1.60;;;;;;;;;;5024888;28;20029;-52
2022/01/27 09:19:45;;;;;;;2.95;1.75;;;;;;;;;;5040880;28;20310;-53
2022/01/27 09:22:15;;;;;;;2.50;1.67;;;;;;;;;;5044378;28;20028;-53
2022/01/27 09:24:59;;;;;;;2.70;1.98;;;;;;;;;;5043872;28;20134;-52
2022/01/27 09:27:25;;;;;;;2.40;1.60;;;;;;;;;;5043541;28;20100;-53
2022/01/27 09:29:50;;;;;;;2.72;1.73;;;;;;;;;;5042964;28;20163;-52
2022/01/27 09:32:16;;;;;;;2.20;1.75;;;;;;;;;;5039487;28;20028;-52
2022/01/27 09:34:42;;;;;;;3.13;2.08;;;;;;;;;;5037997;28;20039;-52
2022/01/27 09:37:07;;;;;;;3.20;2.00;;;;;;;;;;5063019;28;20032;-52
2022/01/27 09:39:33;;;;;;;3.15;1.85;;;;;;;;;;5044052;28;20087;-52
2022/01/27 09:41:58;;;;;;;2.80;1.90;;;;;;;;;;5024035;28;20091;-52
2022/01/27 09:44:27;;;;;;;3.80;2.10;;;;;;;;;;5009348;28;20028;-50
2022/01/27 09:46:55;;;;;;;2.65;1.88;;;;;;;;;;5043098;28;20479;-51
2022/01/27 09:49:30;;;;;;;2.22;1.80;;;;;;;;;;5031423;28;20146;-53
2022/01/27 09:51:55;;;;;;;2.97;1.92;;;;;;;;;;5039432;28;20739;-54
2022/01/27 09:54:20;;;;;;;3.03;2.03;;;;;;;;;;5027552;28;20108;-55
2022/01/27 09:56:46;;;;;;;2.47;2.00;;;;;;;;;;5042693;28;20275;-54
2022/01/27 09:59:11;;;;;;;3.55;2.15;;;;;;;;;;5033018;28;20562;-54
2022/01/27 10:01:36;;;;;;;3.75;2.03;;;;;;;;;;5024163;28;20025;-54
2022/01/27 10:04:04;;;;;;;4.15;2.20;;;;;;;;;;5025514;28;20033;-52
2022/01/27 10:06:30;;;;;;;3.22;1.83;;;;;;;;;;5024258;28;20041;-52
2022/01/27 10:09:11;;;;;;;4.40;2.30;;;;;;;;;;5010459;28;20025;-53
2022/01/27 10:11:36;;;;;;;3.58;2.17;;;;;;;;;;5028453;28;20025;-53
2022/01/27 10:14:20;;;;;;;2.63;1.90;;;;;;;;;;5025009;28;20024;-53
2022/01/27 10:16:46;;;;;;;3.65;2.17;;;;;;;;;;5032263;28;20032;-54
2022/01/27 10:19:11;;;;;;;4.45;2.22;;;;;;;;;;5041938;28;20515;-53
2022/01/27 10:21:37;;;;;;;3.63;2.08;;;;;;;;;;5029712;28;20112;-52
2022/01/27 10:24:14;;;;;;;4.57;2.50;;;;;;;;;;5030419;28;20713;-52
2022/01/27 10:26:44;;;;;;;3.58;2.50;;;;;;;;;;5037650;28;20029;-52
2022/01/27 10:29:14;;;;;;;3.20;2.20;;;;;;;;;;5038549;28;20116;-52
2022/01/27 10:31:41;;;;;;;3.33;1.98;;;;;;;;;;5048175;28;20036;-52
2022/01/27 10:34:07;;;;;;;3.67;2.50;;;;;;;;;;5031150;28;20087;-52
2022/01/27 10:36:33;;;;;;;4.65;2.40;;;;;;;;;;5047931;28;20048;-53
2022/01/27 10:38:58;;;;;;;4.05;2.30;;;;;;;;;;5056629;28;20032;-53
2022/01/27 10:41:25;;;;;;;3.50;2.33;;;;;;;;;;5043305;28;20040;-52
2022/01/27 10:43:50;;;;;;;4.13;2.40;;;;;;;;;;5043843;28;20490;-52
2022/01/27 10:46:28;;;;;;;4.18;2.47;;;;;;;;;;5028594;28;20083;-52
2022/01/27 10:49:05;;;;;;;3.88;2.22;;;;;;;;;;5031646;28;20036;-52
2022/01/27 10:51:38;;;;;;;4.57;2.95;;;;;;;;;;5036315;28;20017;-52
2022/01/27 10:54:08;;;;;;;4.50;2.92;;;;;;;;;;5026583;28;20043;-53
2022/01/27 10:56:37;;;;;;;3.08;2.30;;;;;;;;;;5026498;28;20017;-52
2022/01/27 10:59:03;;;;;;;4.68;2.63;;;;;;;;;;5026232;28;20763;-51
2022/01/27 11:01:32;;;;;;;4.50;2.50;;;;;;;;;;5027185;28;20139;-51
2022/01/27 11:03:58;;;;;;;2.95;2.30;;;;;;;;;;5037222;28;20049;-52
2022/01/27 11:06:25;;;;;;;4.07;2.60;;;;;;;;;;5035597;28;20049;-51
2022/01/27 11:08:54;;;;;;;4.13;2.63;;;;;;;;;;5025903;28;20035;-52
2022/01/27 11:11:21;;;;;;;4.45;2.88;;;;;;;;;;5037025;28;20020;-52
2022/01/27 11:13:46;;;;;;;5.25;2.40;;;;;;;;;;5031576;28;20321;-51
2022/01/27 11:16:15;;;;;;;5.80;2.90;;;;;;;;;;5037499;28;20098;-52
2022/01/27 11:18:41;;;;;;;4.55;2.80;;;;;;;;;;5026753;28;20477;-51
2022/01/27 11:21:22;;;;;;;4.97;2.88;;;;;;;;;;5034396;28;20052;-52
2022/01/27 11:24:00;;;;;;;5.03;2.50;;;;;;;;;;5028697;28;20116;-50
2022/01/27 11:26:25;;;;;;;4.05;2.97;;;;;;;;;;5014847;28;20553;-52
2022/01/27 11:28:51;;;;;;;5.22;3.00;;;;;;;;;;5028022;28;20048;-52
2022/01/27 11:31:22;;;;;;;3.42;2.70;;;;;;;;;;5031267;28;20014;-52
2022/01/27 11:34:00;;;;;;;5.20;3.13;;;;;;;;;;5040277;28;20086;-51
2022/01/27 11:36:26;;;;;;;4.00;2.58;;;;;;;;;;5027629;28;20021;-51
2022/01/27 11:38:51;;;;;;;5.40;3.27;;;;;;;;;;5025658;28;20036;-52
2022/01/27 11:41:36;;;;;;;5.00;2.97;;;;;;;;;;5035063;28;20021;-53
2022/01/27 11:44:20;;;;;;;5.00;3.03;;;;;;;;;;5011436;28;20371;-53
2022/01/27 11:47:16;;;;;;;4.95;2.72;;;;;;;;;;5027839;28;20025;-53
2022/01/27 11:49:55;;;;;;;4.10;2.85;;;;;;;;;;5020199;28;20037;-52
2022/01/27 11:52:20;;;;;;;6.63;3.00;;;;;;;;;;5028945;28;20033;-52
2022/01/27 11:54:45;;;;;;;6.23;3.10;;;;;;;;;;5032834;28;20087;-52
2022/01/27 11:57:30;;;;;;;4.90;3.23;;;;;;;;;;5042966;28;20793;-52
2022/01/27 12:00:06;;;;;;;4.60;2.90;;;;;;;;;;5028753;28;20785;-51
2022/01/27 12:02:35;;;;;;;4.28;3.05;;;;;;;;;;5026305;28;20074;-53
2022/01/27 12:05:12;;;;;;;6.18;3.15;;;;;;;;;;5024879;28;20032;-55
2022/01/27 12:07:58;;;;;;;5.03;3.00;;;;;;;;;;5040190;28;20030;-53
2022/01/27 12:10:40;;;;;;;5.43;3.00;;;;;;;;;;5028432;28;20025;-52
2022/01/27 12:13:24;;;;;;;4.32;2.80;;;;;;;;;;5034183;28;20107;-52
2022/01/27 12:16:07;;;;;;;5.50;3.42;;;;;;;;;;5041475;28;20163;-51
2022/01/27 12:18:33;;;;;;;4.55;2.75;;;;;;;;;;5045922;28;20029;-50
2022/01/27 12:20:58;;;;;;;5.50;3.03;;;;;;;;;;5037673;28;20020;-52
2022/01/27 12:23:23;;;;;;;3.73;2.70;;;;;;;;;;5037689;28;20025;-52
2022/01/27 12:25:50;;;;;;;4.67;3.17;;;;;;;;;;5045925;28;20162;-52
2022/01/27 12:28:16;;;;;;;3.90;2.78;;;;;;;;;;5035887;28;20013;-54
2022/01/27 12:30:50;;;;;;;4.43;3.00;;;;;;;;;;5032836;28;20032;-54
2022/01/27 12:33:17;;;;;;;5.72;3.17;;;;;;;;;;5017037;28;20276;-52
2022/01/27 12:35:51;;;;;;;4.43;3.30;;;;;;;;;;5031644;28;20022;-53
2022/01/27 12:38:16;;;;;;;5.47;3.08;;;;;;;;;;5045949;28;20387;-53
2022/01/27 12:40:41;;;;;;;4.53;2.87;;;;;;;;;;5032311;28;20031;-55
2022/01/27 12:43:13;;;;;;;5.70;4.10;;;;;;;;;;5046508;28;20040;-52
2022/01/27 12:45:41;;;;;;;4.25;3.30;;;;;;;;;;5024356;28;20029;-52
2022/01/27 12:48:14;;;;;;;4.65;3.63;;;;;;;;;;5043569;28;20039;-52
2022/01/27 12:50:39;;;;;;;4.30;2.88;;;;;;;;;;5036302;28;20061;-53
2022/01/27 12:53:10;;;;;;;4.97;3.60;;;;;;;;;;5028046;28;20505;-53
2022/01/27 12:55:36;;;;;;;5.25;3.35;;;;;;;;;;5023835;28;20029;-52
2022/01/27 12:58:03;;;;;;;8.93;4.50;;;;;;;;;;5040321;28;20037;-52
2022/01/27 13:00:29;;;;;;;10.68;5.20;;;;;;;;;;5043929;28;20017;-53
2022/01/27 13:03:00;;;;;;;14.68;5.30;;;;;;;;;;5043286;28;20033;-51
2022/01/27 13:05:32;;;;;;;9.48;5.13;;;;;;;;;;5037826;28;20060;-56
2022/01/27 13:08:00;;;;;;;9.50;5.20;;;;;;;;;;5039562;28;20052;-52
2022/01/27 13:10:25;;;;;;;7.78;5.22;;;;;;;;;;5043264;28;20541;-54
2022/01/27 13:12:54;;;;;;;7.10;4.87;;;;;;;;;;5036641;28;20041;-52
2022/01/27 13:15:22;;;;;;;7.22;5.15;;;;;;;;;;5044264;28;20271;-52
2022/01/27 13:20:18;;;;;;;5.75;4.32;;;;;;;;;;5061843;28;20099;-52
2022/01/27 13:22:46;;;;;;;6.55;5.00;;;;;;;;;;5043278;28;20036;-54
2022/01/27 13:25:11;;;;;;;6.78;4.97;;;;;;;;;;5043042;28;20510;-54
2022/01/27 13:27:36;;;;;;;6.73;5.27;;;;;;;;;;5043015;28;20040;-53
2022/01/27 13:30:01;;;;;;;7.67;5.33;;;;;;;;;;5021925;28;20333;-53
2022/01/27 13:32:27;;;;;;;6.53;4.95;;;;;;;;;;5024453;28;20272;-55
2022/01/27 13:34:52;;;;;;;6.90;5.15;;;;;;;;;;5029887;28;20505;-52
2022/01/27 13:37:30;;;;;;;8.67;5.03;;;;;;;;;;5034584;28;20032;-53
2022/01/27 13:42:22;;;;;;;6.23;4.30;;;;;;;;;;5027363;28;20096;-53
2022/01/27 13:44:54;;;;;;;5.47;4.35;;;;;;;;;;5042789;28;20313;-53
2022/01/27 13:47:34;;;;;;;6.97;4.82;;;;;;;;;;5042952;28;20032;-53
2022/01/27 13:50:12;;;;;;;5.93;4.60;;;;;;;;;;5042656;28;20060;-54
2022/01/27 13:52:40;;;;;;;6.90;4.53;;;;;;;;;;5038242;28;20036;-54
2022/01/27 13:55:06;;;;;;;6.72;4.60;;;;;;;;;;5039871;28;20494;-54
2022/01/27 13:57:32;;;;;;;6.13;4.55;;;;;;;;;;5063296;28;20028;-54
2022/01/27 13:59:59;;;;;;;5.30;4.22;;;;;;;;;;5062828;28;20020;-54
2022/01/27 14:02:53;;;;;;;5.57;4.22;;;;;;;;;;5026365;28;20492;-55
2022/01/27 14:05:19;;;;;;;7.70;4.22;;;;;;;;;;5039224;28;20079;-54
2022/01/27 14:07:47;;;;;;;5.20;3.90;;;;;;;;;;5042808;28;20055;-55
2022/01/27 14:10:19;;;;;;;5.28;4.00;;;;;;;;;;5008443;28;20029;-53
2022/01/27 14:12:48;;;;;;;5.90;4.10;;;;;;;;;;5037042;28;20049;-52
2022/01/27 14:15:29;;;;;;;5.22;4.13;;;;;;;;;;5004717;28;20107;-54
2022/01/27 14:17:58;;;;;;;7.22;4.35;;;;;;;;;;5037848;28;20096;-52
2022/01/27 14:20:23;;;;;;;6.23;4.00;;;;;;;;;;5042394;28;20575;-54
2022/01/27 14:23:00;;;;;;;6.07;4.33;;;;;;;;;;5040016;28;20100;-54
2022/01/27 14:25:32;;;;;;;6.88;4.53;;;;;;;;;;5026360;28;20276;-53
2022/01/27 14:27:58;;;;;;;5.45;4.18;;;;;;;;;;5024860;28;20554;-55
2022/01/27 14:30:23;;;;;;;6.03;4.30;;;;;;;;;;5025735;28;20213;-54
2022/01/27 14:32:48;;;;;;;5.23;4.00;;;;;;;;;;5031378;28;21128;-54
2022/01/27 14:35:14;;;;;;;5.93;4.00;;;;;;;;;;5031683;28;20677;-56
2022/01/27 14:37:40;;;;;;;6.32;3.92;;;;;;;;;;5032287;28;20033;-55
2022/01/27 14:40:06;;;;;;;5.22;3.95;;;;;;;;;;5039063;28;20029;-54
2022/01/27 14:42:32;;;;;;;5.43;3.88;;;;;;;;;;5028503;28;20509;-51
2022/01/27 14:44:59;;;;;;;5.60;3.97;;;;;;;;;;5044742;28;20029;-59
2022/01/27 14:47:24;;;;;;;6.15;4.28;;;;;;;;;;5023934;28;20025;-54
2022/01/27 14:49:52;;;;;;;5.73;3.40;;;;;;;;;;5021902;28;20021;-53
2022/01/27 14:52:20;;;;;;;5.60;4.32;;;;;;;;;;5036899;28;20267;-53
2022/01/27 14:54:46;;;;;;;5.50;4.10;;;;;;;;;;5025422;28;20017;-53
2022/01/27 14:57:11;;;;;;;5.83;3.93;;;;;;;;;;5014516;28;20036;-54
2022/01/27 14:59:36;;;;;;;4.97;3.97;;;;;;;;;;5015704;28;20271;-54
2022/01/27 15:02:02;;;;;;;4.90;3.80;;;;;;;;;;5041123;28;20409;-53
2022/01/27 15:04:30;;;;;;;4.88;3.55;;;;;;;;;;5044877;28;20072;-53
2022/01/27 15:06:56;;;;;;;6.20;3.83;;;;;;;;;;5045508;28;20490;-54
2022/01/27 15:09:21;;;;;;;5.17;4.10;;;;;;;;;;5045643;28;20025;-53
2022/01/27 15:11:46;;;;;;;4.60;3.77;;;;;;;;;;5045493;28;20111;-53
2022/01/27 15:19:41;;;;;;;5.40;3.72;;;;;;;;;;5045682;28;20051;-53
2022/01/27 15:22:06;;;;;;;4.47;3.47;;;;;;;;;;5029233;28;20084;-53
2022/01/27 15:24:32;;;;;;;4.50;3.40;;;;;;;;;;5029382;28;20055;-52
2022/01/27 15:26:57;;;;;;;4.35;3.50;;;;;;;;;;5065390;28;20787;-53
2022/01/27 15:29:23;;;;;;;6.03;3.78;;;;;;;;;;5049872;28;20111;-52
2022/01/27 15:31:48;;;;;;;7.53;3.65;;;;;;;;;;5039883;28;20029;-52
2022/01/27 15:34:13;;;;;;;7.28;3.63;;;;;;;;;;5024652;28;20487;-53
2022/01/27 15:36:39;;;;;;;6.43;4.27;;;;;;;;;;5026624;28;20037;-54
2022/01/27 15:39:04;;;;;;;6.00;4.00;;;;;;;;;;5027794;28;20334;-54